Airfield :
LOGIN :

Register | Disclaimer

   EN    FR    IT 

 










Legend :    VFR   Marginal VFR   IFR   Intensive IFR   Very Intensive IFR
Visi :
Ceiling :
>= 8 km
>= 3000ft
5 to 8 km
1000 to 3000 ft
1500m to 5 km
500 to 1000 ft
800 to 1500m
200 to 500 ft
< 800m
< 200 ft
Symbols :   Thunderstorms  Fog  Heavy snow  Heavy precipitations  Wind > 20 kt
SIGMETs :     Misc.  Thunderstorms  Icing  Turbulence  Mountain Waves  Volcanic Ashes






- Airport Elevation : 157 ft
- IATA code : SXF


EDDB - Berlin Schönefeld

CURRENT METAR :
  • 301720Z 15008KT CAVOK 01/M01 Q1020 NOSIG

EXPIRED METARs :
  • 301650Z 15007KT 9999 FEW033 01/M02 Q1020 NOSIG
  • 301620Z 16007KT 9999 SCT033 01/M02 Q1021 NOSIG
  • 301550Z 17006KT 9999 BKN033 02/M02 Q1021 NOSIG
  • 301520Z 18005KT 9999 BKN033 02/M01 Q1022 NOSIG
  • 301450Z 20005KT 9999 BKN034 02/M01 Q1022 NOSIG

TAF TAF EDDB
Valid from the 30 at 18:00 until the 01 at 18:00 UTC


301700Z 3018/0118 16007KT 9999 SCT030
BECMG 0102/0104 BKN012
TEMPO 0103/0106 4000 -SN BKN008
TEMPO 0106/0109 4000 -SNRA BKN008
TEMPO 0109/0110 4000 -RADZ
BECMG 0115/0118 BKN030



MET'MAP, your aeronautical weather chart ! - Copyright ORBIFLY December 2007 - Disclaimer

ORBIFLY MET'MAP TEAM :

Programming & Development : Alexandra Zaïnal
Concept & original design : Baudouin d'Aumeries
Assistance for programming : Marc-Olivier Méhu
Technical & hardware support : Manuel Goepfert

Contact : metmap@orbifly.com




SOURCES & CREDITS :

   NOAA